createdAt,value
2019-05-11T00:01:25.379Z,75.30
2019-05-11T00:03:53.885Z,68.17
2019-05-11T00:06:22.616Z,65.65
2019-05-11T00:08:51.069Z,63.23
2019-05-11T00:11:19.522Z,58.80
2019-05-11T00:13:48.018Z,56.92
2019-05-11T00:16:19.084Z,45.55
2019-05-11T00:18:46.626Z,43.13
2019-05-11T00:21:15.141Z,37.55
2019-05-11T00:23:43.664Z,37.53
2019-05-11T00:26:12.110Z,35.52
2019-05-11T00:28:40.593Z,35.05
2019-05-11T00:31:09.058Z,36.73
2019-05-11T00:33:37.513Z,34.50
2019-05-11T00:36:06.010Z,35.50
2019-05-11T00:38:34.458Z,38.53
2019-05-11T00:41:02.909Z,38.98
2019-05-11T00:43:31.454Z,39.50
2019-05-11T00:45:59.914Z,39.25
2019-05-11T00:48:28.481Z,40.58
2019-05-11T00:50:57.068Z,42.98
2019-05-11T00:53:25.542Z,42.10
2019-05-11T00:55:54.251Z,45.98
2019-05-11T00:58:22.813Z,44.37
2019-05-11T01:00:51.315Z,42.55
2019-05-11T01:03:19.753Z,42.85
2019-05-11T01:05:48.276Z,45.70
2019-05-11T01:08:16.776Z,44.30
2019-05-11T01:10:45.223Z,44.20
2019-05-11T01:13:13.766Z,44.65
2019-05-11T01:15:42.221Z,44.10
2019-05-11T01:18:10.669Z,41.25
2019-05-11T01:20:39.233Z,41.77
2019-05-11T01:23:07.678Z,39.20
2019-05-11T01:25:36.198Z,39.42
2019-05-11T01:28:04.741Z,43.98
2019-05-11T01:30:33.184Z,45.10
2019-05-11T01:33:01.634Z,42.83
2019-05-11T01:35:30.201Z,41.63
2019-05-11T01:37:58.725Z,38.58
2019-05-11T01:40:27.173Z,40.20
2019-05-11T01:42:55.665Z,41.50
2019-05-11T01:45:24.182Z,42.80
2019-05-11T01:47:52.631Z,41.95
2019-05-11T01:50:21.181Z,41.20
2019-05-11T01:52:49.631Z,44.85
2019-05-11T01:55:18.070Z,42.90
2019-05-11T01:57:46.545Z,42.93
2019-05-11T02:00:15.537Z,44.03
2019-05-11T02:02:44.045Z,42.33
2019-05-11T02:05:28.351Z,41.35
2019-05-11T02:07:57.736Z,40.65
2019-05-11T02:10:27.143Z,40.67
2019-05-11T02:12:55.749Z,41.28
2019-05-11T02:15:24.197Z,43.13
2019-05-11T02:17:52.632Z,43.85
2019-05-11T02:20:21.193Z,43.10
2019-05-11T02:22:49.665Z,38.30
2019-05-11T02:25:18.229Z,34.85
2019-05-11T02:27:46.702Z,30.68
2019-05-11T02:30:16.179Z,30.23
2019-05-11T02:32:44.649Z,31.48
2019-05-11T02:35:14.243Z,30.52
2019-05-11T02:37:42.697Z,32.25
2019-05-11T02:40:11.697Z,32.17
2019-05-11T02:42:59.505Z,34.13
2019-05-11T02:45:40.513Z,35.15
2019-05-11T02:48:09.112Z,38.65
2019-05-11T02:50:39.142Z,36.50
2019-05-11T02:53:08.829Z,36.93
2019-05-11T02:58:06.667Z,33.15
2019-05-11T03:00:40.180Z,34.23
2019-05-11T03:03:08.724Z,33.63
2019-05-11T03:05:37.477Z,34.50
2019-05-11T03:08:06.122Z,32.95
2019-05-11T03:10:34.667Z,34.08
2019-05-11T03:13:03.533Z,33.73
2019-05-11T03:15:32.256Z,36.83
2019-05-11T03:18:01.086Z,37.47
2019-05-11T03:20:29.604Z,36.35
2019-05-11T03:22:58.051Z,34.55
2019-05-11T03:25:26.525Z,34.43
2019-05-11T03:27:55.064Z,33.83
2019-05-11T03:30:23.660Z,32.93
2019-05-11T03:32:52.229Z,38.23
2019-05-11T03:35:20.839Z,37.40
2019-05-11T03:37:49.373Z,36.58
2019-05-11T03:40:18.006Z,35.90
2019-05-11T03:42:46.515Z,36.35
2019-05-11T03:45:15.308Z,34.90
2019-05-11T03:47:43.778Z,34.53
2019-05-11T03:50:13.071Z,34.20
2019-05-11T03:52:41.513Z,36.75
2019-05-11T03:55:10.398Z,35.63
2019-05-11T03:57:38.843Z,36.00
2019-05-11T04:00:08.308Z,36.35
2019-05-11T04:02:36.855Z,39.03
2019-05-11T04:05:06.137Z,38.48
2019-05-11T04:07:34.661Z,37.98
2019-05-11T04:10:04.272Z,38.38
2019-05-11T04:15:02.257Z,37.28
2019-05-11T04:17:30.739Z,38.13
2019-05-11T04:19:59.216Z,36.98
2019-05-11T04:22:27.656Z,38.38
2019-05-11T04:24:56.223Z,38.30
2019-05-11T04:27:24.723Z,39.08
2019-05-11T04:29:53.188Z,39.48
2019-05-11T04:32:21.680Z,39.27
2019-05-11T04:34:50.162Z,38.85
2019-05-11T04:37:18.696Z,36.00
2019-05-11T04:39:47.233Z,38.17
2019-05-11T04:42:15.755Z,39.25
2019-05-11T04:44:44.270Z,36.70
2019-05-11T04:47:12.744Z,36.65
2019-05-11T04:49:41.232Z,37.20
2019-05-11T04:52:09.680Z,36.03
2019-05-11T04:54:38.162Z,34.30
2019-05-11T04:57:06.755Z,32.23
2019-05-11T04:59:35.207Z,31.40
2019-05-11T05:02:03.841Z,30.05
2019-05-11T05:04:32.394Z,29.95
2019-05-11T05:07:05.438Z,26.15
2019-05-11T05:09:36.171Z,26.37
2019-05-11T05:12:01.284Z,25.50
2019-05-11T05:14:29.729Z,27.25
2019-05-11T05:16:58.786Z,25.27
2019-05-11T05:19:27.229Z,26.85
2019-05-11T05:21:55.710Z,24.45
2019-05-11T05:24:24.321Z,23.30
2019-05-11T05:26:52.785Z,24.77
2019-05-11T05:29:21.302Z,23.92
2019-05-11T05:31:49.771Z,21.50
2019-05-11T05:34:18.294Z,24.72
2019-05-11T05:36:46.733Z,26.23
2019-05-11T05:39:15.223Z,23.60
2019-05-11T05:41:56.177Z,24.07
2019-05-11T05:44:16.530Z,19.75
2019-05-11T05:46:45.217Z,20.85
2019-05-11T05:49:13.759Z,21.93
2019-05-11T05:51:42.395Z,24.98
2019-05-11T05:54:10.875Z,24.18
2019-05-11T05:56:39.399Z,25.20
2019-05-11T05:59:07.939Z,29.05
2019-05-11T06:01:36.491Z,32.75
2019-05-11T06:04:05.080Z,29.65
2019-05-11T06:06:33.601Z,27.27
2019-05-11T06:09:02.096Z,26.48
2019-05-11T06:11:30.551Z,25.02
2019-05-11T06:13:58.997Z,21.20
2019-05-11T06:16:27.541Z,22.50
2019-05-11T06:18:56.657Z,16.25
2019-05-11T06:21:25.123Z,17.15
2019-05-11T06:23:53.685Z,18.20
2019-05-11T06:26:22.142Z,17.52
2019-05-11T06:28:50.586Z,15.18
2019-05-11T06:31:19.079Z,16.85
2019-05-11T06:33:47.532Z,14.60
2019-05-11T06:36:16.184Z,13.25
2019-05-11T06:38:44.665Z,14.60
2019-05-11T06:41:13.118Z,14.75
2019-05-11T06:43:41.581Z,15.93
2019-05-11T06:46:10.057Z,13.85
2019-05-11T06:48:38.578Z,12.30
2019-05-11T06:51:07.096Z,12.98
2019-05-11T06:53:35.616Z,13.75
2019-05-11T06:56:05.002Z,12.55
2019-05-11T06:58:33.517Z,12.70
2019-05-11T07:01:02.011Z,12.10
2019-05-11T07:03:30.459Z,12.00
2019-05-11T07:05:59.094Z,11.33
2019-05-11T07:08:27.633Z,12.67
2019-05-11T07:10:56.161Z,12.10
2019-05-11T07:13:24.744Z,11.12
2019-05-11T07:15:53.231Z,11.43
2019-05-11T07:18:21.762Z,10.38
2019-05-11T07:20:51.147Z,11.12
2019-05-11T07:23:19.613Z,9.45
2019-05-11T07:25:48.147Z,9.78
2019-05-11T07:28:16.602Z,8.98
2019-05-11T07:30:45.300Z,9.55
2019-05-11T07:33:13.807Z,9.37
2019-05-11T07:35:42.321Z,8.48
2019-05-11T07:38:10.926Z,9.35
2019-05-11T07:40:39.460Z,8.73
2019-05-11T07:43:09.861Z,8.83
2019-05-11T07:45:38.750Z,9.30
2019-05-11T07:48:08.057Z,9.50
2019-05-11T07:50:38.745Z,8.80
2019-05-11T07:53:08.171Z,7.53
2019-05-11T07:55:38.546Z,8.03
2019-05-11T07:58:08.050Z,8.30
2019-05-11T08:03:06.091Z,7.03
2019-05-11T08:05:34.533Z,7.33
2019-05-11T08:08:03.043Z,6.20
2019-05-11T08:10:31.596Z,7.20
2019-05-11T08:13:00.139Z,7.97
2019-05-11T08:15:28.768Z,6.92
2019-05-11T08:18:20.413Z,4.60
2019-05-11T08:20:49.237Z,4.47
2019-05-11T08:23:18.170Z,4.75
2019-05-11T08:25:48.638Z,6.95
2019-05-11T08:28:18.377Z,5.30
2019-05-11T08:30:48.608Z,4.80
2019-05-11T08:33:18.135Z,4.75
2019-05-11T08:38:18.075Z,4.33
2019-05-11T08:40:48.499Z,5.45
2019-05-11T08:43:17.984Z,5.00
2019-05-11T08:45:48.485Z,4.53
2019-05-11T08:48:18.744Z,4.60
2019-05-11T08:50:48.867Z,4.72
2019-05-11T08:53:17.888Z,4.65
2019-05-11T08:55:48.666Z,4.75
2019-05-11T08:58:19.473Z,3.90
2019-05-11T09:00:47.889Z,3.60
2019-05-11T09:03:17.871Z,3.80
2019-05-11T09:05:48.612Z,3.80
2019-05-11T09:08:18.740Z,3.40
2019-05-11T09:10:49.065Z,3.30
2019-05-11T09:13:18.553Z,3.37
2019-05-11T09:15:48.395Z,3.65
2019-05-11T09:18:18.767Z,3.17
2019-05-11T09:20:48.664Z,3.12
2019-05-11T09:23:32.924Z,3.30
2019-05-11T09:25:48.698Z,3.60
2019-05-11T09:28:18.061Z,3.42
2019-05-11T09:30:48.348Z,3.27
2019-05-11T09:33:20.174Z,3.27
2019-05-11T09:35:52.598Z,3.00
2019-05-11T09:38:18.559Z,2.90
2019-05-11T09:40:47.988Z,3.05
2019-05-11T09:43:17.873Z,3.60
2019-05-11T09:45:49.236Z,3.40
2019-05-11T09:48:17.944Z,3.60
2019-05-11T09:50:48.136Z,3.10
2019-05-11T09:53:17.737Z,3.10
2019-05-11T09:55:48.141Z,3.40
2019-05-11T09:58:19.640Z,3.80
2019-05-11T10:00:48.068Z,3.55
2019-05-11T10:03:18.613Z,3.77
2019-05-11T10:05:48.725Z,3.30
2019-05-11T10:08:18.305Z,4.03
2019-05-11T10:10:48.827Z,3.42
2019-05-11T10:13:18.551Z,3.60
2019-05-11T10:16:02.586Z,3.62
2019-05-11T10:18:18.635Z,3.55
2019-05-11T10:20:48.161Z,3.50
2019-05-11T10:25:48.081Z,3.45
2019-05-11T10:28:17.930Z,3.80
2019-05-11T10:30:48.745Z,3.77
2019-05-11T10:33:18.826Z,3.70
2019-05-11T10:35:48.365Z,3.95
2019-05-11T10:38:18.111Z,3.77
2019-05-11T10:40:48.053Z,3.72
2019-05-11T10:43:18.390Z,2.98
2019-05-11T10:45:48.350Z,3.00
2019-05-11T10:48:17.792Z,2.80
2019-05-11T10:50:48.369Z,3.62
2019-05-11T10:53:18.538Z,3.42
2019-05-11T10:55:47.947Z,3.40
2019-05-11T10:58:18.432Z,3.42
2019-05-11T11:00:48.087Z,3.70
2019-05-11T11:03:17.931Z,3.42
2019-05-11T11:05:48.605Z,3.58
2019-05-11T11:08:18.581Z,3.40
2019-05-11T11:11:08.051Z,3.70
2019-05-11T11:13:38.531Z,3.87
2019-05-11T11:16:08.358Z,3.30
2019-05-11T11:18:38.123Z,3.55
2019-05-11T11:21:08.661Z,3.42
2019-05-11T11:23:38.514Z,4.08
2019-05-11T11:26:08.189Z,3.72
2019-05-11T11:28:38.341Z,3.77
2019-05-11T11:31:07.979Z,3.40
2019-05-11T11:38:33.843Z,3.08
2019-05-11T11:41:02.316Z,3.58
2019-05-11T11:43:30.753Z,2.72
2019-05-11T11:45:59.210Z,3.17
2019-05-11T11:48:28.079Z,3.40
2019-05-11T11:50:58.508Z,3.17
2019-05-11T11:53:27.927Z,3.37
2019-05-11T11:55:58.624Z,3.10
2019-05-11T11:58:27.737Z,2.72
2019-05-11T12:03:24.249Z,2.70
2019-05-11T12:05:52.698Z,3.10
2019-05-11T12:08:21.212Z,3.03
2019-05-11T12:10:50.853Z,3.17
2019-05-11T12:13:19.393Z,2.98
2019-05-11T12:15:48.351Z,3.23
2019-05-11T12:18:18.496Z,3.42
2019-05-11T12:21:07.950Z,3.12
2019-05-11T12:23:38.118Z,2.83
2019-05-11T12:26:08.487Z,2.77
2019-05-11T12:28:38.240Z,3.15
2019-05-11T12:31:08.740Z,3.40
2019-05-11T12:33:38.557Z,3.50
2019-05-11T12:36:07.942Z,5.28
2019-05-11T12:43:33.843Z,2.85
2019-05-11T12:46:03.430Z,3.30
2019-05-11T12:48:31.887Z,2.83
2019-05-11T12:51:00.410Z,3.00
2019-05-11T12:53:28.980Z,2.63
2019-05-11T12:55:58.940Z,2.90
2019-05-11T12:58:28.122Z,2.83
2019-05-11T13:00:58.531Z,3.02
2019-05-11T13:03:27.910Z,3.08
2019-05-11T13:08:24.294Z,2.60
2019-05-11T13:10:52.747Z,2.97
2019-05-11T13:13:21.181Z,3.50
2019-05-11T13:15:49.665Z,3.30
2019-05-11T13:18:18.671Z,2.90
2019-05-11T13:20:48.321Z,2.80
2019-05-11T13:23:18.541Z,2.90
2019-05-11T13:25:48.032Z,3.33
2019-05-11T13:33:13.994Z,2.67
2019-05-11T13:35:42.666Z,2.53
2019-05-11T13:38:11.206Z,2.70
2019-05-11T13:40:39.788Z,3.10
2019-05-11T13:43:08.478Z,2.80
2019-05-11T13:45:38.804Z,2.42
2019-05-11T13:48:08.480Z,2.85
2019-05-11T13:50:38.617Z,2.77
2019-05-11T13:53:07.780Z,2.67
2019-05-11T13:55:38.578Z,2.55
2019-05-11T13:58:08.284Z,2.77
2019-05-11T14:00:38.047Z,2.70
2019-05-11T14:03:08.388Z,2.80
2019-05-11T14:05:37.823Z,2.77
2019-05-11T14:08:08.134Z,3.15
2019-05-11T14:10:38.335Z,3.10
2019-05-11T14:13:08.818Z,3.20
2019-05-11T14:15:37.769Z,3.12
2019-05-11T14:18:09.425Z,3.37
2019-05-11T14:20:37.835Z,2.67
2019-05-11T14:23:07.688Z,2.70
2019-05-11T14:25:38.069Z,2.83
2019-05-11T14:28:08.826Z,3.00
2019-05-11T14:30:38.685Z,3.30
2019-05-11T14:33:08.765Z,2.52
2019-05-11T14:35:38.507Z,2.90
2019-05-11T14:38:08.155Z,2.85
2019-05-11T14:40:38.805Z,2.60
2019-05-11T14:43:08.442Z,2.83
2019-05-11T14:45:38.057Z,2.70
2019-05-11T14:48:22.593Z,2.62
2019-05-11T14:50:38.639Z,2.90
2019-05-11T14:53:08.598Z,3.10
2019-05-11T14:55:38.097Z,2.95
2019-05-11T14:58:08.333Z,3.10
2019-05-11T15:00:39.111Z,3.22
2019-05-11T15:03:07.897Z,3.20
2019-05-11T15:10:33.715Z,2.80
2019-05-11T15:13:02.162Z,2.75
2019-05-11T15:15:30.705Z,2.80
2019-05-11T15:17:59.218Z,2.80
2019-05-11T15:20:28.519Z,2.53
2019-05-11T15:22:58.180Z,3.30
2019-05-11T15:25:28.661Z,2.87
2019-05-11T15:27:58.418Z,3.25
2019-05-11T15:30:28.779Z,3.00
2019-05-11T15:32:58.416Z,2.60
2019-05-11T15:35:28.480Z,2.83
2019-05-11T15:37:58.248Z,2.33
2019-05-11T15:40:27.847Z,4.00
2019-05-11T15:42:58.401Z,3.08
2019-05-11T15:45:27.674Z,2.95
2019-05-11T15:47:58.679Z,3.12
2019-05-11T15:50:28.854Z,3.70
2019-05-11T15:52:58.186Z,3.02
2019-05-11T15:55:27.793Z,3.20
2019-05-11T15:57:56.605Z,3.30
2019-05-11T16:00:25.229Z,3.33
2019-05-11T16:02:53.690Z,3.35
2019-05-11T16:05:22.202Z,3.90
2019-05-11T16:07:50.717Z,3.93
2019-05-11T16:10:19.673Z,4.03
2019-05-11T16:12:48.815Z,4.08
2019-05-11T16:15:19.215Z,3.77
2019-05-11T16:17:48.967Z,3.40
2019-05-11T16:22:47.993Z,3.47
2019-05-11T16:25:19.244Z,3.83
2019-05-11T16:27:47.354Z,3.22
2019-05-11T16:30:18.409Z,3.47
2019-05-11T16:32:48.070Z,3.35
2019-05-11T16:35:17.954Z,3.40
2019-05-11T16:37:48.616Z,2.92
2019-05-11T16:40:20.256Z,3.12
2019-05-11T16:42:47.918Z,3.40
2019-05-11T16:45:18.997Z,3.10
2019-05-11T16:47:48.223Z,3.37
2019-05-11T16:50:18.096Z,3.62
2019-05-11T16:52:48.284Z,3.22
2019-05-11T16:55:18.379Z,3.20
2019-05-11T16:57:48.514Z,3.33
2019-05-11T17:00:17.820Z,3.70
2019-05-11T17:02:48.677Z,3.65
2019-05-11T17:05:26.099Z,3.95
2019-05-11T17:07:48.325Z,3.90
2019-05-11T17:10:18.080Z,3.70
2019-05-11T17:12:48.438Z,4.35
2019-05-11T17:15:18.495Z,3.98
2019-05-11T17:17:48.670Z,4.60
2019-05-11T17:20:18.879Z,4.97
2019-05-11T17:22:48.289Z,7.87
2019-05-11T17:25:19.133Z,14.18
2019-05-11T17:27:48.790Z,6.30
2019-05-11T17:30:19.353Z,6.90
2019-05-11T17:32:49.153Z,3.90
2019-05-11T17:35:18.261Z,4.42
2019-05-11T17:37:48.645Z,4.20
2019-05-11T17:40:20.592Z,3.65
2019-05-11T17:42:48.050Z,4.72
2019-05-11T17:45:19.006Z,5.20
2019-05-11T17:47:47.382Z,5.47
2019-05-11T17:50:18.855Z,5.60
2019-05-11T17:52:47.939Z,4.92
2019-05-11T17:55:18.488Z,4.55
2019-05-11T17:57:49.528Z,4.65
2019-05-11T18:00:19.800Z,4.33
2019-05-11T18:02:49.047Z,4.47
2019-05-11T18:05:17.933Z,4.55
2019-05-11T18:07:46.665Z,4.40
2019-05-11T18:10:18.118Z,4.33
2019-05-11T18:12:48.337Z,4.35
2019-05-11T18:15:19.955Z,4.12
2019-05-11T18:17:49.262Z,4.75
2019-05-11T18:20:21.520Z,4.90
2019-05-11T18:22:49.046Z,4.60
2019-05-11T18:27:48.233Z,4.67
2019-05-11T18:30:17.351Z,4.30
2019-05-11T18:32:48.604Z,4.10
2019-05-11T18:35:19.059Z,4.33
2019-05-11T18:37:47.783Z,4.50
2019-05-11T18:40:18.641Z,4.00
2019-05-11T18:42:48.830Z,4.33
2019-05-11T18:45:18.932Z,4.67
2019-05-11T18:47:48.995Z,4.50
2019-05-11T18:50:29.409Z,4.62
2019-05-11T18:52:49.039Z,4.87
2019-05-11T18:55:18.880Z,5.45
2019-05-11T18:57:48.978Z,6.80
2019-05-11T19:00:19.719Z,6.78
2019-05-11T19:02:49.346Z,8.60
2019-05-11T19:05:18.406Z,9.45
2019-05-11T19:07:48.184Z,8.68
2019-05-11T19:10:17.084Z,7.90
2019-05-11T19:12:48.442Z,8.60
2019-05-11T19:15:18.454Z,7.65
2019-05-11T19:17:48.753Z,8.85
2019-05-11T19:20:18.127Z,8.30
2019-05-11T19:22:46.779Z,7.28
2019-05-11T19:25:15.375Z,7.83
2019-05-11T19:27:43.894Z,7.93
2019-05-11T19:30:12.780Z,6.97
2019-05-11T19:32:41.217Z,7.80
2019-05-11T19:35:09.722Z,7.62
2019-05-11T19:37:39.129Z,7.78
2019-05-11T19:40:09.158Z,8.10
2019-05-11T19:42:55.915Z,8.75
2019-05-11T19:45:24.676Z,9.00
2019-05-11T19:47:53.258Z,10.20
2019-05-11T19:50:21.984Z,9.15
2019-05-11T19:52:50.431Z,9.08
2019-05-11T19:55:18.906Z,9.15
2019-05-11T19:57:48.314Z,10.38
2019-05-11T20:02:47.300Z,9.23
2019-05-11T20:05:18.172Z,9.87
2019-05-11T20:07:48.635Z,9.30
2019-05-11T20:10:18.526Z,10.58
2019-05-11T20:12:48.316Z,12.53
2019-05-11T20:15:18.805Z,13.80
2019-05-11T20:17:48.652Z,12.82
2019-05-11T20:20:18.479Z,13.58
2019-05-11T20:22:48.178Z,13.13
2019-05-11T20:25:18.687Z,12.43
2019-05-11T20:27:48.608Z,13.18
2019-05-11T20:30:18.876Z,11.68
2019-05-11T20:32:48.811Z,13.05
2019-05-11T20:35:17.820Z,12.58
2019-05-11T20:37:46.413Z,13.90
2019-05-11T20:40:15.259Z,16.67
2019-05-11T20:42:43.816Z,14.68
2019-05-11T20:45:12.747Z,13.85
2019-05-11T20:47:41.424Z,14.50
2019-05-11T20:50:10.238Z,18.40
2019-05-11T20:52:41.282Z,16.65
2019-05-11T20:55:09.882Z,15.20
2019-05-11T20:57:39.443Z,14.13
2019-05-11T21:00:09.328Z,14.35
2019-05-11T21:05:09.076Z,12.70
2019-05-11T21:07:38.928Z,11.95
2019-05-11T21:10:08.816Z,11.48
2019-05-11T21:12:38.683Z,11.55
2019-05-11T21:15:09.036Z,10.18
2019-05-11T21:17:37.709Z,10.40
2019-05-11T21:20:09.638Z,10.30
2019-05-11T21:22:40.468Z,10.32
2019-05-11T21:25:09.178Z,9.75
2019-05-11T21:27:38.424Z,10.25
2019-05-11T21:32:37.410Z,11.08
2019-05-11T21:35:08.675Z,10.82
2019-05-11T21:37:38.696Z,9.80
2019-05-11T21:40:08.468Z,8.43
2019-05-11T21:42:39.019Z,10.80
2019-05-11T21:45:09.443Z,10.00
2019-05-11T21:47:39.061Z,10.48
2019-05-11T21:50:09.351Z,12.68
2019-05-11T21:52:38.516Z,11.38
2019-05-11T21:55:09.659Z,12.33
2019-05-11T21:57:38.767Z,11.48
2019-05-11T22:00:10.390Z,11.20
2019-05-11T22:02:39.092Z,10.85
2019-05-11T22:05:08.936Z,10.25
2019-05-11T22:10:08.965Z,9.85
2019-05-11T22:12:38.706Z,10.40
2019-05-11T22:15:09.819Z,9.83
2019-05-11T22:17:39.656Z,10.45
2019-05-11T22:20:09.537Z,10.23
2019-05-11T22:25:08.680Z,9.80
2019-05-11T22:27:38.897Z,10.05
2019-05-11T22:30:11.281Z,9.25
2019-05-11T22:32:39.751Z,9.55
2019-05-11T22:35:09.272Z,9.45
2019-05-11T22:37:38.605Z,10.10
2019-05-11T22:40:08.708Z,10.05
2019-05-11T22:42:37.791Z,9.83
2019-05-11T22:45:08.466Z,10.45
2019-05-11T22:47:39.148Z,10.08
2019-05-11T22:50:09.236Z,9.70
2019-05-11T22:52:40.476Z,9.88
2019-05-11T22:55:12.127Z,9.43
2019-05-11T22:57:41.262Z,10.98
2019-05-11T23:02:38.221Z,10.10
2019-05-11T23:05:08.587Z,10.43
2019-05-11T23:07:41.197Z,10.25
2019-05-11T23:10:09.455Z,10.35
2019-05-11T23:15:12.574Z,10.08
2019-05-11T23:17:41.561Z,10.38
2019-05-11T23:20:10.799Z,10.90
2019-05-11T23:22:56.944Z,10.88
2019-05-11T23:25:18.846Z,10.88
2019-05-11T23:27:48.637Z,11.22
2019-05-11T23:30:19.743Z,10.80
2019-05-11T23:32:48.655Z,10.85
2019-05-11T23:35:18.715Z,10.80
2019-05-11T23:37:49.637Z,10.60
2019-05-11T23:40:18.383Z,11.30
2019-05-11T23:42:49.023Z,11.28
2019-05-11T23:45:18.825Z,12.03
2019-05-11T23:47:48.925Z,11.35
2019-05-11T23:50:19.448Z,10.43
2019-05-11T23:53:04.206Z,10.40
2019-05-11T23:55:19.547Z,11.18
2019-05-11T23:57:48.974Z,10.18
